Time;durP1;ratioP1;P1;durP2;ratioP2;P2;SDS_P1;SDS_P2;PMS_P1;PMS_P2;Temp;Humidity;BMP_temperature;BMP_pressure;BME280_temperature;BME280_humidity;BME280_pressure;Samples;Min_cycle;Max_cycle;Signal;HPM_P1;HPM_P2
2021/10/15 05:41:29;;;;;;;38.65;21.52;;;;;;;;;;4944388;29;20051;-63
2021/10/15 05:43:55;;;;;;;37.30;21.13;;;;;;;;;;4952671;29;20036;-66
2021/10/15 05:46:21;;;;;;;40.92;23.05;;;;;;;;;;4952483;29;20031;-64
2021/10/15 05:48:48;;;;;;;39.38;21.80;;;;;;;;;;4952496;29;20032;-64
2021/10/15 05:51:14;;;;;;;40.20;22.48;;;;;;;;;;4949687;29;20027;-63
2021/10/15 05:53:40;;;;;;;38.58;21.38;;;;;;;;;;4947486;29;20039;-61
2021/10/15 05:59:03;;;;;;;48.42;27.17;;;;;;;;;;4841046;29;20033;-61
2021/10/15 06:01:29;;;;;;;41.33;24.30;;;;;;;;;;4847902;29;20124;-65
2021/10/15 06:14:37;;;;;;;49.13;25.30;;;;;;;;;;4850910;29;20562;-66
2021/10/15 06:17:08;;;;;;;37.25;21.92;;;;;;;;;;4846287;29;20755;-63
2021/10/15 06:19:52;;;;;;;40.00;21.48;;;;;;;;;;4851134;29;20525;-65
2021/10/15 06:22:18;;;;;;;37.40;21.05;;;;;;;;;;4850509;29;20045;-67
2021/10/15 06:24:44;;;;;;;39.38;20.98;;;;;;;;;;4846401;29;20030;-67
2021/10/15 06:27:10;;;;;;;35.40;20.23;;;;;;;;;;4844319;29;20044;-63
2021/10/15 06:29:36;;;;;;;38.03;22.23;;;;;;;;;;4845790;29;20516;-64
2021/10/15 06:32:03;;;;;;;45.20;22.38;;;;;;;;;;4845680;29;20104;-64
2021/10/15 06:34:29;;;;;;;39.45;22.33;;;;;;;;;;4845179;29;20033;-67
2021/10/15 06:36:55;;;;;;;36.28;21.13;;;;;;;;;;4939892;29;20091;-65
2021/10/15 06:39:21;;;;;;;38.78;22.60;;;;;;;;;;4952530;29;20357;-66
2021/10/15 06:41:47;;;;;;;38.45;21.35;;;;;;;;;;4935247;29;20055;-65
2021/10/15 06:44:13;;;;;;;40.45;20.95;;;;;;;;;;4935539;29;20091;-65
2021/10/15 06:46:39;;;;;;;35.83;20.88;;;;;;;;;;4935852;29;20035;-64
2021/10/15 06:49:05;;;;;;;36.63;20.92;;;;;;;;;;4935937;29;20020;-64
2021/10/15 06:51:31;;;;;;;35.78;20.38;;;;;;;;;;4933377;29;20039;-65
2021/10/15 06:53:58;;;;;;;32.45;19.23;;;;;;;;;;4935809;29;20082;-67
2021/10/15 06:56:24;;;;;;;38.03;20.30;;;;;;;;;;4935645;29;20040;-66
2021/10/15 06:58:50;;;;;;;37.40;19.58;;;;;;;;;;4935210;29;20034;-66
2021/10/15 07:01:16;;;;;;;39.60;21.40;;;;;;;;;;4935808;29;20026;-67
2021/10/15 07:03:42;;;;;;;37.58;20.73;;;;;;;;;;4934345;29;20032;-67
2021/10/15 07:06:09;;;;;;;38.17;21.25;;;;;;;;;;4934618;29;20026;-65
2021/10/15 07:08:35;;;;;;;38.28;21.65;;;;;;;;;;4935009;29;20168;-67
2021/10/15 07:11:01;;;;;;;37.08;20.77;;;;;;;;;;4935494;29;20110;-64
2021/10/15 07:13:27;;;;;;;40.40;20.90;;;;;;;;;;4934074;29;20149;-63
2021/10/15 07:15:53;;;;;;;34.10;19.65;;;;;;;;;;4934099;29;20106;-68
2021/10/15 07:18:19;;;;;;;35.03;20.08;;;;;;;;;;4933725;29;20115;-65
2021/10/15 07:20:45;;;;;;;32.63;19.92;;;;;;;;;;4934783;29;20027;-65
2021/10/15 07:23:12;;;;;;;34.97;20.20;;;;;;;;;;4934376;29;20024;-65
2021/10/15 07:25:38;;;;;;;36.20;21.15;;;;;;;;;;4934693;29;20091;-65
2021/10/15 07:28:04;;;;;;;42.08;23.73;;;;;;;;;;4934627;29;20035;-66
2021/10/15 07:30:31;;;;;;;45.97;24.98;;;;;;;;;;4934579;29;20024;-65
2021/10/15 07:32:57;;;;;;;38.90;22.52;;;;;;;;;;4921836;29;20631;-60
2021/10/15 07:35:23;;;;;;;38.20;23.13;;;;;;;;;;4934356;29;20078;-63
2021/10/15 07:37:49;;;;;;;37.17;21.92;;;;;;;;;;4931797;29;20024;-62
2021/10/15 07:40:15;;;;;;;39.30;21.00;;;;;;;;;;4932952;29;20115;-63
2021/10/15 07:42:41;;;;;;;37.30;20.65;;;;;;;;;;4934511;29;20095;-61
2021/10/15 07:45:07;;;;;;;38.75;21.23;;;;;;;;;;4934979;29;20032;-60
2021/10/15 07:47:33;;;;;;;39.10;21.63;;;;;;;;;;4933252;29;20044;-66
2021/10/15 07:50:00;;;;;;;41.83;23.05;;;;;;;;;;4933497;29;20126;-66
2021/10/15 07:52:26;;;;;;;44.05;23.33;;;;;;;;;;4934478;29;20139;-64
2021/10/15 07:54:52;;;;;;;48.13;24.70;;;;;;;;;;4935108;29;20028;-64
2021/10/15 07:57:18;;;;;;;42.72;23.25;;;;;;;;;;4935082;29;20098;-66
2021/10/15 07:59:44;;;;;;;40.55;20.88;;;;;;;;;;4934893;29;20028;-66
2021/10/15 08:02:10;;;;;;;35.78;19.83;;;;;;;;;;4934915;29;20024;-65
2021/10/15 08:04:36;;;;;;;39.15;19.75;;;;;;;;;;4935015;29;20028;-66
2021/10/15 08:07:03;;;;;;;37.15;20.35;;;;;;;;;;4930026;29;20093;-62
2021/10/15 08:09:30;;;;;;;36.30;19.63;;;;;;;;;;4934113;29;20035;-65
2021/10/15 08:11:56;;;;;;;43.15;24.20;;;;;;;;;;4933695;29;20039;-65
2021/10/15 08:14:22;;;;;;;46.10;25.23;;;;;;;;;;4933987;29;20392;-63
2021/10/15 08:16:49;;;;;;;33.75;20.50;;;;;;;;;;4934645;29;20032;-61
2021/10/15 08:19:15;;;;;;;34.60;20.98;;;;;;;;;;4933104;29;20464;-62
2021/10/15 08:21:42;;;;;;;31.38;19.38;;;;;;;;;;4933566;29;20036;-63
2021/10/15 08:24:10;;;;;;;33.42;20.73;;;;;;;;;;4933618;29;20550;-66
2021/10/15 08:26:36;;;;;;;37.50;19.90;;;;;;;;;;4947205;29;20044;-65
2021/10/15 08:29:03;;;;;;;35.63;21.25;;;;;;;;;;4932395;29;20032;-64
2021/10/15 08:31:29;;;;;;;36.95;20.80;;;;;;;;;;4932189;29;20078;-62
2021/10/15 08:33:56;;;;;;;43.85;22.48;;;;;;;;;;4929250;29;20145;-62
2021/10/15 08:36:23;;;;;;;41.17;22.70;;;;;;;;;;4933124;29;20044;-64
2021/10/15 08:38:52;;;;;;;35.88;21.73;;;;;;;;;;4932912;29;20016;-63
2021/10/15 08:41:19;;;;;;;37.75;21.08;;;;;;;;;;4932411;29;20135;-61
2021/10/15 08:43:45;;;;;;;35.90;19.23;;;;;;;;;;4933106;29;20034;-65
2021/10/15 08:46:12;;;;;;;33.65;19.80;;;;;;;;;;4932635;29;20059;-63
2021/10/15 08:48:39;;;;;;;39.22;21.95;;;;;;;;;;4933867;29;20043;-65
2021/10/15 08:51:05;;;;;;;38.78;22.83;;;;;;;;;;4934214;29;20038;-63
2021/10/15 08:53:31;;;;;;;31.38;18.98;;;;;;;;;;4933151;29;20130;-66
2021/10/15 08:55:57;;;;;;;37.88;20.70;;;;;;;;;;4932645;29;20460;-63
2021/10/15 08:58:40;;;;;;;42.53;23.02;;;;;;;;;;4932140;29;20561;-60
2021/10/15 09:01:06;;;;;;;46.55;25.92;;;;;;;;;;4931142;29;20607;-61
2021/10/15 09:03:32;;;;;;;50.13;24.75;;;;;;;;;;4932968;29;20044;-62
2021/10/15 09:06:00;;;;;;;46.88;24.17;;;;;;;;;;4933714;29;20051;-65
2021/10/15 09:08:27;;;;;;;41.17;22.38;;;;;;;;;;4931990;29;20180;-62
2021/10/15 09:10:54;;;;;;;45.92;23.38;;;;;;;;;;4932419;29;20036;-63
2021/10/15 09:13:21;;;;;;;38.70;22.33;;;;;;;;;;4932601;29;20032;-64
2021/10/15 09:15:48;;;;;;;39.72;23.23;;;;;;;;;;4931960;29;20392;-63
2021/10/15 09:18:18;;;;;;;45.72;24.88;;;;;;;;;;4932182;29;20452;-63
2021/10/15 09:20:45;;;;;;;49.13;27.58;;;;;;;;;;4932120;29;20099;-63
2021/10/15 09:23:12;;;;;;;39.63;23.55;;;;;;;;;;4932316;29;20024;-65
2021/10/15 09:25:39;;;;;;;39.40;24.75;;;;;;;;;;4933459;29;20024;-66
2021/10/15 09:28:12;;;;;;;38.47;23.80;;;;;;;;;;4933453;29;20498;-65
2021/10/15 09:30:38;;;;;;;;;;;;;;;;;;4934022;29;20028;-66
2021/10/15 09:33:04;;;;;;;48.35;28.27;;;;;;;;;;4933549;29;19970;-65
2021/10/15 09:35:31;;;;;;;45.08;25.55;;;;;;;;;;4933357;29;20055;-67
2021/10/15 09:38:01;;;;;;;57.78;32.92;;;;;;;;;;4933370;29;20027;-68
2021/10/15 09:40:30;;;;;;;48.90;27.10;;;;;;;;;;4932733;29;20119;-65
2021/10/15 09:42:58;;;;;;;44.25;27.08;;;;;;;;;;4933151;29;20357;-66
2021/10/15 09:45:27;;;;;;;46.67;26.90;;;;;;;;;;4932068;29;20054;-68
2021/10/15 09:47:55;;;;;;;42.70;26.23;;;;;;;;;;4931929;29;20027;-66
2021/10/15 09:50:22;;;;;;;55.65;31.17;;;;;;;;;;4932145;29;20058;-66
2021/10/15 09:52:49;;;;;;;47.47;27.85;;;;;;;;;;4922948;29;20031;-68
2021/10/15 09:55:34;;;;;;;51.08;29.60;;;;;;;;;;4932111;29;20015;-67
2021/10/15 09:58:12;;;;;;;47.80;29.23;;;;;;;;;;4931306;29;20106;-68
2021/10/15 10:00:39;;;;;;;49.78;27.70;;;;;;;;;;4931998;29;20040;-65
2021/10/15 10:03:05;;;;;;;48.88;29.08;;;;;;;;;;4929943;29;20020;-69
2021/10/15 10:05:31;;;;;;;50.47;29.17;;;;;;;;;;4931936;29;20498;-66
2021/10/15 10:07:58;;;;;;;51.80;30.83;;;;;;;;;;4924100;29;20679;-67
2021/10/15 10:10:25;;;;;;;51.67;29.75;;;;;;;;;;4935687;29;20031;-64
2021/10/15 10:12:52;;;;;;;50.95;30.70;;;;;;;;;;4937401;29;20035;-62
2021/10/15 10:15:19;;;;;;;50.70;30.65;;;;;;;;;;4936986;29;20028;-62
2021/10/15 10:18:13;;;;;;;55.85;29.48;;;;;;;;;;4936442;29;20035;-63
2021/10/15 10:20:43;;;;;;;60.33;34.30;;;;;;;;;;4936516;29;20042;-65
2021/10/15 10:23:18;;;;;;;58.90;33.63;;;;;;;;;;4937046;29;20106;-60
2021/10/15 10:25:44;;;;;;;46.28;27.00;;;;;;;;;;4937099;29;20032;-63
2021/10/15 10:28:20;;;;;;;44.58;26.33;;;;;;;;;;4936885;29;20050;-65
2021/10/15 10:30:51;;;;;;;48.08;28.75;;;;;;;;;;4936442;29;20391;-64
2021/10/15 10:33:17;;;;;;;49.92;27.70;;;;;;;;;;4936617;29;20035;-64
2021/10/15 10:35:43;;;;;;;54.47;30.17;;;;;;;;;;4936418;29;20111;-65
2021/10/15 10:38:23;;;;;;;43.10;24.33;;;;;;;;;;4936657;29;20039;-61
2021/10/15 10:41:15;;;;;;;44.63;24.92;;;;;;;;;;4936140;29;20511;-63
2021/10/15 10:43:44;;;;;;;48.35;27.50;;;;;;;;;;4933668;29;20040;-63
2021/10/15 10:46:23;;;;;;;44.67;24.13;;;;;;;;;;4936510;29;20032;-61
2021/10/15 10:48:49;;;;;;;49.72;28.20;;;;;;;;;;4935966;29;20031;-61
2021/10/15 10:51:16;;;;;;;48.35;26.73;;;;;;;;;;4936580;29;20400;-62
2021/10/15 10:54:02;;;;;;;67.45;34.85;;;;;;;;;;4936673;29;20038;-66
2021/10/15 10:56:41;;;;;;;61.95;33.55;;;;;;;;;;4935991;29;20035;-64
2021/10/15 10:59:22;;;;;;;44.13;25.90;;;;;;;;;;4935690;29;20063;-63
2021/10/15 11:01:55;;;;;;;40.00;25.58;;;;;;;;;;4936144;29;20023;-62
2021/10/15 11:04:27;;;;;;;40.95;23.63;;;;;;;;;;4936046;29;20042;-61
2021/10/15 11:06:56;;;;;;;36.90;21.90;;;;;;;;;;4935653;29;20573;-64
2021/10/15 11:09:48;;;;;;;40.22;24.23;;;;;;;;;;4935600;29;20472;-61
2021/10/15 11:12:26;;;;;;;45.55;24.45;;;;;;;;;;4933306;29;20040;-62
2021/10/15 11:14:59;;;;;;;38.42;21.77;;;;;;;;;;4935062;29;20035;-61
2021/10/15 11:17:28;;;;;;;43.88;24.90;;;;;;;;;;4918275;29;20043;-61
2021/10/15 11:20:06;;;;;;;43.47;23.55;;;;;;;;;;4935311;29;20016;-64
2021/10/15 11:22:33;;;;;;;48.65;25.90;;;;;;;;;;4935665;29;20539;-63
2021/10/15 11:24:59;;;;;;;57.50;30.45;;;;;;;;;;4935989;29;20031;-61
2021/10/15 11:27:25;;;;;;;48.13;25.98;;;;;;;;;;4935208;29;20111;-62
2021/10/15 11:29:55;;;;;;;44.03;25.25;;;;;;;;;;4935934;29;20032;-64
2021/10/15 11:32:38;;;;;;;53.80;28.30;;;;;;;;;;4935361;29;20032;-59
2021/10/15 11:35:07;;;;;;;45.75;26.85;;;;;;;;;;4935661;29;20032;-64
2021/10/15 11:37:46;;;;;;;48.10;26.23;;;;;;;;;;4935637;29;20028;-59
2021/10/15 11:40:15;;;;;;;75.43;35.25;;;;;;;;;;4934744;29;20091;-62
2021/10/15 11:42:41;;;;;;;44.60;23.88;;;;;;;;;;4935321;29;20047;-59
2021/10/15 11:45:26;;;;;;;37.92;21.65;;;;;;;;;;4934575;29;20115;-60
2021/10/15 11:47:58;;;;;;;42.42;24.20;;;;;;;;;;4917746;29;20407;-61
2021/10/15 11:50:35;;;;;;;37.95;22.42;;;;;;;;;;4935507;29;20024;-59
2021/10/15 11:53:01;;;;;;;36.28;21.33;;;;;;;;;;4935004;29;20048;-64
2021/10/15 11:55:31;;;;;;;36.75;22.85;;;;;;;;;;4935435;29;20019;-61
2021/10/15 11:58:16;;;;;;;38.35;22.67;;;;;;;;;;4935113;29;20031;-61
2021/10/15 12:01:02;;;;;;;35.15;20.48;;;;;;;;;;4935159;29;20103;-64
2021/10/15 12:03:28;;;;;;;42.30;24.13;;;;;;;;;;4935388;29;20031;-59
2021/10/15 12:05:55;;;;;;;44.72;22.30;;;;;;;;;;4935220;29;20476;-61
2021/10/15 12:08:21;;;;;;;36.22;20.52;;;;;;;;;;4935287;29;20043;-65
2021/10/15 12:10:48;;;;;;;37.28;21.90;;;;;;;;;;4935150;29;20024;-60
2021/10/15 12:13:14;;;;;;;46.42;25.13;;;;;;;;;;4935219;29;20028;-62
2021/10/15 12:15:40;;;;;;;37.90;21.77;;;;;;;;;;4934897;29;20103;-63
2021/10/15 12:18:09;;;;;;;38.00;21.92;;;;;;;;;;4934164;29;20035;-63
2021/10/15 12:20:36;;;;;;;31.67;18.90;;;;;;;;;;4934440;29;20035;-62
2021/10/15 12:23:06;;;;;;;36.80;23.10;;;;;;;;;;4928915;29;20036;-66
2021/10/15 12:25:32;;;;;;;34.75;20.73;;;;;;;;;;4931493;29;20043;-63
2021/10/15 12:27:58;;;;;;;30.88;17.42;;;;;;;;;;4933145;29;20115;-60
2021/10/15 12:30:25;;;;;;;30.90;17.60;;;;;;;;;;4917478;29;20035;-63
2021/10/15 12:32:52;;;;;;;28.67;16.67;;;;;;;;;;4933224;29;20055;-64
2021/10/15 12:35:25;;;;;;;30.52;17.92;;;;;;;;;;4934138;29;20113;-63
2021/10/15 12:37:51;;;;;;;30.23;18.27;;;;;;;;;;4934005;29;20035;-67
2021/10/15 12:40:38;;;;;;;45.40;26.65;;;;;;;;;;4933821;29;20048;-63
2021/10/15 12:43:06;;;;;;;30.88;19.95;;;;;;;;;;4933060;29;20138;-60
2021/10/15 12:45:32;;;;;;;40.55;22.17;;;;;;;;;;4933908;29;20027;-63
2021/10/15 12:47:58;;;;;;;30.63;17.88;;;;;;;;;;4933765;29;20588;-66
2021/10/15 12:50:26;;;;;;;47.83;25.30;;;;;;;;;;4933587;29;20119;-59
2021/10/15 12:53:15;;;;;;;47.38;26.80;;;;;;;;;;5067514;28;20751;-64
2021/10/15 12:55:50;;;;;;;34.15;19.83;;;;;;;;;;5063298;28;20107;-63
2021/10/15 12:58:16;;;;;;;36.67;21.13;;;;;;;;;;5064473;28;20028;-63
2021/10/15 13:00:49;;;;;;;39.28;22.30;;;;;;;;;;5066153;28;20021;-62
2021/10/15 13:03:16;;;;;;;43.00;23.63;;;;;;;;;;5066124;28;20551;-63
2021/10/15 13:05:42;;;;;;;64.85;33.05;;;;;;;;;;5066290;28;20589;-62
2021/10/15 13:08:08;;;;;;;38.17;24.42;;;;;;;;;;5065885;28;20028;-64
2021/10/15 13:10:34;;;;;;;43.92;25.83;;;;;;;;;;5066250;28;20044;-66
2021/10/15 13:13:00;;;;;;;35.35;21.90;;;;;;;;;;5066034;28;20029;-61
2021/10/15 13:15:27;;;;;;;37.25;23.38;;;;;;;;;;5066023;28;20025;-65
2021/10/15 13:17:54;;;;;;;33.92;21.25;;;;;;;;;;5066308;28;20032;-62
2021/10/15 13:20:22;;;;;;;35.03;20.02;;;;;;;;;;5065785;28;20031;-67
2021/10/15 13:22:48;;;;;;;41.22;25.08;;;;;;;;;;5065318;28;20043;-60
2021/10/15 13:25:14;;;;;;;33.53;21.17;;;;;;;;;;5067622;28;20032;-65
2021/10/15 13:27:40;;;;;;;35.55;18.60;;;;;;;;;;5069719;28;20538;-64
2021/10/15 13:30:07;;;;;;;37.72;20.58;;;;;;;;;;5067103;28;20052;-60
2021/10/15 13:32:33;;;;;;;42.80;22.95;;;;;;;;;;5066675;28;20020;-59
2021/10/15 13:34:59;;;;;;;49.42;26.95;;;;;;;;;;5065870;28;20028;-59
2021/10/15 13:37:29;;;;;;;39.60;21.52;;;;;;;;;;5066131;28;20028;-61
2021/10/15 13:39:58;;;;;;;35.65;20.52;;;;;;;;;;5065273;28;20550;-61
2021/10/15 13:42:59;;;;;;;34.70;18.85;;;;;;;;;;5061327;28;20126;-62
2021/10/15 13:45:30;;;;;;;39.13;22.15;;;;;;;;;;5058399;28;20028;-64
2021/10/15 13:50:42;;;;;;;37.60;21.65;;;;;;;;;;5055143;28;20514;-63
2021/10/15 13:53:09;;;;;;;48.13;26.95;;;;;;;;;;5059463;28;20020;-62
2021/10/15 13:56:01;;;;;;;46.00;23.60;;;;;;;;;;5053516;28;20396;-63
2021/10/15 14:00:58;;;;;;;35.17;20.23;;;;;;;;;;5046946;28;20025;-60
2021/10/15 14:05:59;;;;;;;38.20;21.10;;;;;;;;;;5041917;28;20041;-61
2021/10/15 14:08:25;;;;;;;38.08;20.38;;;;;;;;;;5039148;28;20035;-63
2021/10/15 14:10:51;;;;;;;37.42;21.50;;;;;;;;;;5036892;28;20033;-61
2021/10/15 14:13:18;;;;;;;37.70;21.58;;;;;;;;;;5036630;28;20021;-59
2021/10/15 14:15:44;;;;;;;35.65;21.45;;;;;;;;;;5035844;28;20088;-61
2021/10/15 14:18:10;;;;;;;35.15;20.98;;;;;;;;;;5040528;28;20033;-60
2021/10/15 14:20:37;;;;;;;34.72;21.15;;;;;;;;;;5040238;28;20021;-59
2021/10/15 14:23:04;;;;;;;36.63;21.90;;;;;;;;;;5042727;28;20030;-62
2021/10/15 14:25:30;;;;;;;38.20;21.25;;;;;;;;;;5040880;28;20052;-60
2021/10/15 14:27:56;;;;;;;36.95;22.77;;;;;;;;;;5041031;28;20127;-61
2021/10/15 14:30:22;;;;;;;38.72;22.35;;;;;;;;;;5041800;28;20013;-62
2021/10/15 14:32:49;;;;;;;38.58;23.20;;;;;;;;;;5051367;28;20479;-61
2021/10/15 14:35:15;;;;;;;41.22;24.23;;;;;;;;;;5052239;28;20063;-61
2021/10/15 14:37:42;;;;;;;48.25;26.08;;;;;;;;;;5052488;28;20111;-66
2021/10/15 14:40:08;;;;;;;43.75;25.38;;;;;;;;;;5051416;28;20060;-61
2021/10/15 14:42:34;;;;;;;43.95;24.42;;;;;;;;;;5051935;28;20049;-60
2021/10/15 14:45:00;;;;;;;48.75;28.75;;;;;;;;;;5052081;28;20025;-59
2021/10/15 14:47:26;;;;;;;67.13;34.65;;;;;;;;;;5052085;28;20171;-60
2021/10/15 14:49:52;;;;;;;45.70;25.90;;;;;;;;;;5051816;28;20096;-64
2021/10/15 14:52:19;;;;;;;46.47;24.58;;;;;;;;;;5051565;28;20060;-62
2021/10/15 14:54:45;;;;;;;47.80;25.00;;;;;;;;;;5052047;28;20021;-59
2021/10/15 14:57:11;;;;;;;48.10;26.92;;;;;;;;;;5051431;28;20480;-63
2021/10/15 14:59:39;;;;;;;48.85;25.88;;;;;;;;;;5051290;28;20095;-64
2021/10/15 15:02:06;;;;;;;42.08;22.92;;;;;;;;;;5051400;28;20037;-62
2021/10/15 15:04:32;;;;;;;40.22;21.77;;;;;;;;;;5051015;28;20029;-67
2021/10/15 15:06:58;;;;;;;48.58;26.17;;;;;;;;;;5043327;28;20118;-61
2021/10/15 15:09:24;;;;;;;38.95;22.35;;;;;;;;;;5037731;28;20029;-61
2021/10/15 15:11:51;;;;;;;45.20;26.88;;;;;;;;;;5043503;28;20040;-60
2021/10/15 15:14:17;;;;;;;40.58;24.00;;;;;;;;;;5038632;28;20022;-62
2021/10/15 15:16:43;;;;;;;46.35;25.90;;;;;;;;;;5038715;28;20037;-61
2021/10/15 15:19:09;;;;;;;35.28;22.05;;;;;;;;;;5040681;28;20036;-59
2021/10/15 15:21:35;;;;;;;41.42;25.55;;;;;;;;;;5036406;28;20127;-61
2021/10/15 15:24:01;;;;;;;44.47;27.33;;;;;;;;;;5039002;28;20030;-59
2021/10/15 15:26:28;;;;;;;51.15;28.20;;;;;;;;;;5034169;28;20053;-60
2021/10/15 15:28:55;;;;;;;48.63;28.77;;;;;;;;;;5040695;28;20032;-61
2021/10/15 15:31:21;;;;;;;51.17;28.88;;;;;;;;;;5050711;28;20464;-61
2021/10/15 15:33:50;;;;;;;47.83;26.65;;;;;;;;;;5033129;28;20083;-62
2021/10/15 15:36:18;;;;;;;43.97;25.48;;;;;;;;;;5037899;28;20032;-60
2021/10/15 15:38:44;;;;;;;34.88;20.65;;;;;;;;;;5040578;28;20021;-60
2021/10/15 15:41:10;;;;;;;37.08;22.30;;;;;;;;;;5040594;28;20429;-63
2021/10/15 15:43:37;;;;;;;42.60;25.60;;;;;;;;;;5049725;28;20385;-61
2021/10/15 15:46:06;;;;;;;48.95;30.50;;;;;;;;;;5049417;28;20047;-61
2021/10/15 15:48:36;;;;;;;42.67;27.27;;;;;;;;;;5051106;28;20021;-61
2021/10/15 15:51:03;;;;;;;45.42;26.23;;;;;;;;;;5049500;28;20139;-61
2021/10/15 15:53:29;;;;;;;58.67;32.55;;;;;;;;;;5050624;28;20025;-61
2021/10/15 15:55:56;;;;;;;44.17;26.17;;;;;;;;;;5044028;28;20087;-65
2021/10/15 15:58:26;;;;;;;55.45;31.50;;;;;;;;;;5038280;28;20364;-62
2021/10/15 16:00:52;;;;;;;49.17;28.45;;;;;;;;;;5048577;28;20086;-59
2021/10/15 16:03:18;;;;;;;48.47;28.85;;;;;;;;;;5035994;28;20033;-64
2021/10/15 16:05:44;;;;;;;45.75;26.00;;;;;;;;;;5039753;28;20060;-60
2021/10/15 16:08:10;;;;;;;58.47;34.40;;;;;;;;;;5038042;28;20028;-63
2021/10/15 16:10:37;;;;;;;54.60;34.42;;;;;;;;;;5039130;28;20046;-62
2021/10/15 16:13:03;;;;;;;47.35;28.50;;;;;;;;;;5037460;28;20036;-61
2021/10/15 16:15:30;;;;;;;41.05;23.85;;;;;;;;;;5046139;28;20051;-61
2021/10/15 16:17:56;;;;;;;43.78;26.05;;;;;;;;;;5040836;28;20048;-64
2021/10/15 16:20:22;;;;;;;56.05;30.55;;;;;;;;;;5038213;28;20021;-61
2021/10/15 16:22:49;;;;;;;45.33;25.48;;;;;;;;;;5046411;28;20053;-61
2021/10/15 16:25:15;;;;;;;47.40;27.35;;;;;;;;;;5037961;28;20076;-64
2021/10/15 16:27:41;;;;;;;43.08;25.83;;;;;;;;;;5041417;28;20025;-63
2021/10/15 16:30:08;;;;;;;44.83;26.70;;;;;;;;;;5038379;28;20030;-63
2021/10/15 16:32:35;;;;;;;44.08;26.25;;;;;;;;;;5029988;28;20080;-63
2021/10/15 16:35:02;;;;;;;52.50;29.02;;;;;;;;;;5034487;28;20033;-63
2021/10/15 16:37:28;;;;;;;53.20;30.17;;;;;;;;;;5036225;28;20036;-62
2021/10/15 16:39:54;;;;;;;47.20;28.02;;;;;;;;;;5043022;28;20104;-60
2021/10/15 16:42:20;;;;;;;46.65;26.80;;;;;;;;;;5039944;28;20037;-60
2021/10/15 16:44:46;;;;;;;55.30;30.15;;;;;;;;;;5037754;28;20025;-64
2021/10/15 16:47:13;;;;;;;49.70;29.45;;;;;;;;;;5039001;28;20104;-60
2021/10/15 16:49:39;;;;;;;54.15;32.00;;;;;;;;;;5039337;28;20021;-62
2021/10/15 16:52:05;;;;;;;56.35;32.97;;;;;;;;;;5044032;28;20063;-63
2021/10/15 16:54:31;;;;;;;60.75;34.90;;;;;;;;;;5029976;28;20037;-62
2021/10/15 16:56:57;;;;;;;69.07;39.92;;;;;;;;;;5034848;28;20036;-62
2021/10/15 16:59:23;;;;;;;49.88;27.90;;;;;;;;;;5049720;28;20099;-61
2021/10/15 17:01:49;;;;;;;65.43;36.90;;;;;;;;;;5048120;28;20029;-64
2021/10/15 17:04:15;;;;;;;45.35;26.50;;;;;;;;;;5049486;28;20108;-64
2021/10/15 17:06:41;;;;;;;38.95;24.38;;;;;;;;;;5049800;28;20562;-63
2021/10/15 17:09:07;;;;;;;40.17;23.27;;;;;;;;;;5049025;28;20369;-63
2021/10/15 17:11:33;;;;;;;37.53;23.20;;;;;;;;;;5049460;28;20021;-60
2021/10/15 17:13:59;;;;;;;34.00;21.40;;;;;;;;;;5049672;28;20032;-65
2021/10/15 17:16:26;;;;;;;35.80;21.63;;;;;;;;;;5049795;28;20029;-59
2021/10/15 17:18:52;;;;;;;35.50;21.27;;;;;;;;;;5049754;28;20025;-63
2021/10/15 17:21:18;;;;;;;45.35;26.40;;;;;;;;;;5049440;28;20033;-66
2021/10/15 17:23:45;;;;;;;52.13;30.80;;;;;;;;;;5049637;28;20037;-63
2021/10/15 17:26:11;;;;;;;35.83;21.65;;;;;;;;;;5049237;28;20037;-62
2021/10/15 17:28:37;;;;;;;57.22;33.00;;;;;;;;;;5049344;28;20035;-59
2021/10/15 17:31:03;;;;;;;56.08;30.63;;;;;;;;;;5048956;28;20035;-66
2021/10/15 17:33:29;;;;;;;45.67;24.63;;;;;;;;;;5049783;28;20021;-62
2021/10/15 17:35:55;;;;;;;48.42;24.30;;;;;;;;;;5049271;28;20108;-64
2021/10/15 17:38:21;;;;;;;52.83;29.98;;;;;;;;;;5051002;28;20033;-61
2021/10/15 17:40:47;;;;;;;58.83;27.65;;;;;;;;;;5052765;28;20037;-62
2021/10/15 17:43:13;;;;;;;59.35;32.60;;;;;;;;;;5052826;28;20044;-62
2021/10/15 17:45:40;;;;;;;51.38;27.95;;;;;;;;;;5053260;28;20394;-65
2021/10/15 17:48:06;;;;;;;57.88;31.92;;;;;;;;;;5052787;28;20737;-64
2021/10/15 17:50:32;;;;;;;46.05;25.55;;;;;;;;;;5052832;28;20061;-64
2021/10/15 17:52:58;;;;;;;48.95;26.95;;;;;;;;;;5052553;28;20057;-64
2021/10/15 17:55:24;;;;;;;41.75;24.98;;;;;;;;;;5053167;28;20059;-62
2021/10/15 17:57:50;;;;;;;47.55;25.52;;;;;;;;;;5052844;28;20103;-65
2021/10/15 18:00:19;;;;;;;56.88;30.65;;;;;;;;;;5052940;28;20025;-64
2021/10/15 18:02:45;;;;;;;80.15;31.00;;;;;;;;;;5052662;28;20852;-63
2021/10/15 18:05:12;;;;;;;92.47;33.92;;;;;;;;;;5052353;28;20040;-61
2021/10/15 18:07:38;;;;;;;21.42;12.02;;;;;;;;;;5052752;28;20036;-63
2021/10/15 18:10:04;;;;;;;29.92;16.70;;;;;;;;;;5050804;28;20039;-60
2021/10/15 18:12:30;;;;;;;21.58;11.85;;;;;;;;;;5052716;28;20071;-60
2021/10/15 18:14:56;;;;;;;26.17;13.35;;;;;;;;;;5052188;28;20112;-66
2021/10/15 18:17:23;;;;;;;27.75;15.90;;;;;;;;;;5052694;28;20101;-62
2021/10/15 18:19:49;;;;;;;33.80;18.92;;;;;;;;;;5052519;28;20104;-61
2021/10/15 18:22:16;;;;;;;34.78;19.08;;;;;;;;;;5052183;28;20040;-60
2021/10/15 18:24:42;;;;;;;30.73;18.15;;;;;;;;;;5052374;28;20017;-63
2021/10/15 18:27:08;;;;;;;40.85;22.50;;;;;;;;;;5052414;28;20057;-61
2021/10/15 18:29:34;;;;;;;38.88;21.42;;;;;;;;;;5052056;28;20032;-63
2021/10/15 18:32:00;;;;;;;33.25;18.95;;;;;;;;;;5052374;28;20029;-60
2021/10/15 18:34:30;;;;;;;34.35;20.75;;;;;;;;;;5052868;28;20025;-63
2021/10/15 18:36:57;;;;;;;36.90;22.02;;;;;;;;;;5052239;28;20476;-61
2021/10/15 18:39:23;;;;;;;39.15;23.90;;;;;;;;;;5051866;28;20029;-64
2021/10/15 18:41:49;;;;;;;39.58;24.45;;;;;;;;;;5052285;28;20036;-64
2021/10/15 18:44:16;;;;;;;41.47;24.05;;;;;;;;;;5052149;28;20025;-63
2021/10/15 18:46:42;;;;;;;40.03;24.30;;;;;;;;;;5052154;28;20028;-61
2021/10/15 18:49:08;;;;;;;39.42;24.00;;;;;;;;;;5051682;28;20017;-64
2021/10/15 18:51:34;;;;;;;38.75;23.65;;;;;;;;;;5051937;28;20060;-63
2021/10/15 18:54:00;;;;;;;40.47;24.65;;;;;;;;;;5051988;28;20032;-63
2021/10/15 18:56:26;;;;;;;39.72;24.70;;;;;;;;;;5052175;28;20033;-60
2021/10/15 18:58:52;;;;;;;39.83;24.42;;;;;;;;;;5051699;28;20378;-61
2021/10/15 19:01:19;;;;;;;42.80;25.10;;;;;;;;;;5051835;28;20044;-60
2021/10/15 19:03:45;;;;;;;41.22;25.38;;;;;;;;;;5051945;28;20349;-64
2021/10/15 19:06:11;;;;;;;44.47;26.25;;;;;;;;;;5051618;28;20083;-62
2021/10/15 19:08:37;;;;;;;45.45;28.13;;;;;;;;;;5051135;28;20032;-61
2021/10/15 19:11:03;;;;;;;45.88;27.83;;;;;;;;;;5051322;28;20107;-62
2021/10/15 19:13:30;;;;;;;49.67;29.77;;;;;;;;;;5051832;28;20477;-59
2021/10/15 19:15:57;;;;;;;51.35;30.60;;;;;;;;;;5051742;28;20043;-59
2021/10/15 19:18:23;;;;;;;50.63;30.88;;;;;;;;;;5051614;28;20048;-61
2021/10/15 19:20:49;;;;;;;54.45;31.13;;;;;;;;;;5051022;28;20052;-59
2021/10/15 19:23:16;;;;;;;55.00;32.33;;;;;;;;;;5051343;28;20092;-60
2021/10/15 19:25:45;;;;;;;57.75;32.22;;;;;;;;;;5051455;28;20044;-60
2021/10/15 19:28:12;;;;;;;57.05;31.98;;;;;;;;;;5051154;28;20029;-60
2021/10/15 19:30:38;;;;;;;54.60;31.45;;;;;;;;;;5040773;28;20032;-60
2021/10/15 19:33:06;;;;;;;39.63;22.73;;;;;;;;;;5031397;28;20029;-60
2021/10/15 19:35:32;;;;;;;48.13;28.52;;;;;;;;;;5032364;28;20041;-61
2021/10/15 19:38:01;;;;;;;52.92;29.55;;;;;;;;;;5030964;28;20058;-62
2021/10/15 19:40:27;;;;;;;46.75;27.48;;;;;;;;;;5037980;28;20033;-59
2021/10/15 19:42:53;;;;;;;39.92;23.10;;;;;;;;;;5046585;28;20036;-62
2021/10/15 19:45:19;;;;;;;43.50;26.05;;;;;;;;;;5048982;28;20068;-60
2021/10/15 19:47:45;;;;;;;47.88;28.08;;;;;;;;;;5050322;28;20028;-61
2021/10/15 19:50:12;;;;;;;44.35;25.98;;;;;;;;;;5045693;28;20127;-61
2021/10/15 19:52:38;;;;;;;41.70;25.70;;;;;;;;;;5035251;28;20044;-60
2021/10/15 19:55:05;;;;;;;42.95;26.23;;;;;;;;;;5050150;28;20578;-60
2021/10/15 19:57:31;;;;;;;45.35;25.42;;;;;;;;;;5049840;28;20570;-63
2021/10/15 19:59:57;;;;;;;36.70;20.92;;;;;;;;;;5049909;28;20388;-61
2021/10/15 20:02:24;;;;;;;33.08;20.77;;;;;;;;;;5048480;28;20029;-61
2021/10/15 20:04:50;;;;;;;35.97;21.67;;;;;;;;;;5044941;28;20025;-61
2021/10/15 20:07:16;;;;;;;37.53;23.05;;;;;;;;;;5049372;28;20047;-62
2021/10/15 20:09:43;;;;;;;39.55;21.98;;;;;;;;;;5048341;28;20455;-61
2021/10/15 20:12:09;;;;;;;37.72;21.95;;;;;;;;;;5047567;28;20107;-62
2021/10/15 20:14:35;;;;;;;35.72;21.80;;;;;;;;;;5049691;28;20087;-58
2021/10/15 20:17:01;;;;;;;37.45;23.27;;;;;;;;;;5049441;28;20025;-61
2021/10/15 20:19:27;;;;;;;36.72;22.90;;;;;;;;;;5049351;28;20110;-60
2021/10/15 20:21:53;;;;;;;38.45;22.30;;;;;;;;;;5049237;28;20057;-61
2021/10/15 20:24:20;;;;;;;38.28;23.38;;;;;;;;;;5049454;28;20025;-61